sensor_id;sensor_type;location;lat;lon;timestamp;P1;durP1;ratioP1;P2;durP2;ratioP2
15297;SDS011;7750;48.796;9.026;2023-04-10T00:02:29;11.67;;;8.87;;
15297;SDS011;7750;48.796;9.026;2023-04-10T00:07:30;10.20;;;8.10;;
15297;SDS011;7750;48.796;9.026;2023-04-10T00:12:31;12.27;;;9.43;;
15297;SDS011;7750;48.796;9.026;2023-04-10T00:17:31;11.60;;;8.20;;
15297;SDS011;7750;48.796;9.026;2023-04-10T00:22:32;10.27;;;8.50;;
15297;SDS011;7750;48.796;9.026;2023-04-10T00:27:33;12.77;;;9.00;;
15297;SDS011;7750;48.796;9.026;2023-04-10T00:32:33;11.70;;;9.33;;
15297;SDS011;7750;48.796;9.026;2023-04-10T00:37:34;12.73;;;9.97;;
15297;SDS011;7750;48.796;9.026;2023-04-10T00:42:35;11.57;;;9.20;;
15297;SDS011;7750;48.796;9.026;2023-04-10T00:47:36;11.27;;;8.73;;
15297;SDS011;7750;48.796;9.026;2023-04-10T00:52:37;10.17;;;7.53;;
15297;SDS011;7750;48.796;9.026;2023-04-10T00:57:37;11.77;;;8.63;;
15297;SDS011;7750;48.796;9.026;2023-04-10T01:02:42;12.33;;;9.00;;
15297;SDS011;7750;48.796;9.026;2023-04-10T01:08:05;11.67;;;8.70;;
15297;SDS011;7750;48.796;9.026;2023-04-10T01:18:31;10.60;;;8.40;;
15297;SDS011;7750;48.796;9.026;2023-04-10T01:34:07;11.17;;;9.23;;
15297;SDS011;7750;48.796;9.026;2023-04-10T01:39:17;13.80;;;9.97;;
15297;SDS011;7750;48.796;9.026;2023-04-10T01:44:20;12.20;;;10.40;;
15297;SDS011;7750;48.796;9.026;2023-04-10T01:49:27;11.40;;;8.87;;
15297;SDS011;7750;48.796;9.026;2023-04-10T01:54:32;12.90;;;9.70;;
15297;SDS011;7750;48.796;9.026;2023-04-10T01:59:48;11.40;;;9.00;;
15297;SDS011;7750;48.796;9.026;2023-04-10T02:04:49;12.33;;;10.07;;
15297;SDS011;7750;48.796;9.026;2023-04-10T02:09:57;10.90;;;9.10;;
15297;SDS011;7750;48.796;9.026;2023-04-10T02:15:03;11.30;;;9.30;;
15297;SDS011;7750;48.796;9.026;2023-04-10T02:20:06;12.63;;;10.50;;
15297;SDS011;7750;48.796;9.026;2023-04-10T02:25:10;11.30;;;9.60;;
15297;SDS011;7750;48.796;9.026;2023-04-10T02:30:10;13.57;;;10.20;;
15297;SDS011;7750;48.796;9.026;2023-04-10T02:35:11;12.77;;;10.27;;
15297;SDS011;7750;48.796;9.026;2023-04-10T02:40:12;12.23;;;10.00;;
15297;SDS011;7750;48.796;9.026;2023-04-10T02:45:13;12.73;;;9.17;;
15297;SDS011;7750;48.796;9.026;2023-04-10T02:50:14;14.00;;;9.80;;
15297;SDS011;7750;48.796;9.026;2023-04-10T02:55:17;9.30;;;7.90;;
15297;SDS011;7750;48.796;9.026;2023-04-10T03:00:17;11.20;;;9.23;;
15297;SDS011;7750;48.796;9.026;2023-04-10T03:05:18;14.73;;;10.00;;
15297;SDS011;7750;48.796;9.026;2023-04-10T03:10:19;11.13;;;9.40;;
15297;SDS011;7750;48.796;9.026;2023-04-10T03:15:20;10.93;;;8.87;;
15297;SDS011;7750;48.796;9.026;2023-04-10T03:20:20;11.63;;;9.47;;
15297;SDS011;7750;48.796;9.026;2023-04-10T03:25:21;12.10;;;9.70;;
15297;SDS011;7750;48.796;9.026;2023-04-10T03:30:22;11.33;;;9.20;;
15297;SDS011;7750;48.796;9.026;2023-04-10T03:35:23;12.27;;;10.30;;
15297;SDS011;7750;48.796;9.026;2023-04-10T03:40:23;12.90;;;9.80;;
15297;SDS011;7750;48.796;9.026;2023-04-10T03:45:24;12.87;;;10.40;;
15297;SDS011;7750;48.796;9.026;2023-04-10T03:50:25;13.77;;;10.47;;
15297;SDS011;7750;48.796;9.026;2023-04-10T03:55:26;11.50;;;9.37;;
15297;SDS011;7750;48.796;9.026;2023-04-10T04:00:27;15.17;;;11.27;;
15297;SDS011;7750;48.796;9.026;2023-04-10T04:05:28;13.67;;;10.23;;
15297;SDS011;7750;48.796;9.026;2023-04-10T04:10:29;14.47;;;10.73;;
15297;SDS011;7750;48.796;9.026;2023-04-10T04:15:30;14.00;;;10.67;;
15297;SDS011;7750;48.796;9.026;2023-04-10T04:20:34;14.47;;;10.10;;
15297;SDS011;7750;48.796;9.026;2023-04-10T04:25:35;13.80;;;10.73;;
15297;SDS011;7750;48.796;9.026;2023-04-10T04:30:35;12.50;;;10.30;;
15297;SDS011;7750;48.796;9.026;2023-04-10T04:35:36;13.80;;;9.90;;
15297;SDS011;7750;48.796;9.026;2023-04-10T04:40:37;13.07;;;10.63;;
15297;SDS011;7750;48.796;9.026;2023-04-10T04:45:38;13.23;;;10.67;;
15297;SDS011;7750;48.796;9.026;2023-04-10T04:50:41;11.07;;;8.87;;
15297;SDS011;7750;48.796;9.026;2023-04-10T04:55:42;12.23;;;9.37;;
15297;SDS011;7750;48.796;9.026;2023-04-10T05:00:43;13.80;;;9.83;;
15297;SDS011;7750;48.796;9.026;2023-04-10T05:05:43;12.33;;;9.33;;
15297;SDS011;7750;48.796;9.026;2023-04-10T05:10:44;14.33;;;10.90;;
15297;SDS011;7750;48.796;9.026;2023-04-10T05:15:48;14.63;;;10.37;;
15297;SDS011;7750;48.796;9.026;2023-04-10T05:20:52;13.40;;;9.90;;
15297;SDS011;7750;48.796;9.026;2023-04-10T05:25:53;12.60;;;9.10;;
15297;SDS011;7750;48.796;9.026;2023-04-10T05:30:54;12.40;;;9.57;;
15297;SDS011;7750;48.796;9.026;2023-04-10T05:35:55;13.37;;;10.80;;
15297;SDS011;7750;48.796;9.026;2023-04-10T05:40:56;17.27;;;13.20;;
15297;SDS011;7750;48.796;9.026;2023-04-10T05:45:59;15.90;;;11.77;;
15297;SDS011;7750;48.796;9.026;2023-04-10T05:51:05;14.23;;;10.73;;
15297;SDS011;7750;48.796;9.026;2023-04-10T05:56:06;13.77;;;10.97;;
15297;SDS011;7750;48.796;9.026;2023-04-10T06:01:10;15.00;;;9.90;;
15297;SDS011;7750;48.796;9.026;2023-04-10T06:06:27;14.20;;;10.80;;
15297;SDS011;7750;48.796;9.026;2023-04-10T06:11:31;13.77;;;10.13;;
15297;SDS011;7750;48.796;9.026;2023-04-10T06:16:41;14.10;;;11.70;;
15297;SDS011;7750;48.796;9.026;2023-04-10T06:22:11;14.60;;;10.90;;
15297;SDS011;7750;48.796;9.026;2023-04-10T06:27:26;16.90;;;11.57;;
15297;SDS011;7750;48.796;9.026;2023-04-10T06:32:35;13.77;;;11.80;;
15297;SDS011;7750;48.796;9.026;2023-04-10T06:37:51;12.70;;;10.80;;
15297;SDS011;7750;48.796;9.026;2023-04-10T06:43:27;11.10;;;9.20;;
15297;SDS011;7750;48.796;9.026;2023-04-10T06:49:03;13.10;;;10.37;;
15297;SDS011;7750;48.796;9.026;2023-04-10T06:54:43;11.60;;;9.53;;
15297;SDS011;7750;48.796;9.026;2023-04-10T07:35:29;9.67;;;6.70;;
15297;SDS011;7750;48.796;9.026;2023-04-10T07:40:33;7.50;;;6.20;;
15297;SDS011;7750;48.796;9.026;2023-04-10T07:57:41;7.27;;;5.40;;
15297;SDS011;7750;48.796;9.026;2023-04-10T08:02:42;8.17;;;6.43;;
15297;SDS011;7750;48.796;9.026;2023-04-10T08:07:43;6.47;;;5.30;;
15297;SDS011;7750;48.796;9.026;2023-04-10T08:13:02;6.67;;;5.03;;
15297;SDS011;7750;48.796;9.026;2023-04-10T08:18:02;5.50;;;4.70;;
15297;SDS011;7750;48.796;9.026;2023-04-10T08:23:08;5.53;;;4.30;;
15297;SDS011;7750;48.796;9.026;2023-04-10T08:28:14;4.70;;;4.03;;
15297;SDS011;7750;48.796;9.026;2023-04-10T08:33:14;6.30;;;4.40;;
15297;SDS011;7750;48.796;9.026;2023-04-10T08:38:15;5.13;;;4.00;;
15297;SDS011;7750;48.796;9.026;2023-04-10T08:43:16;4.70;;;4.00;;
15297;SDS011;7750;48.796;9.026;2023-04-10T08:48:19;5.20;;;4.10;;
15297;SDS011;7750;48.796;9.026;2023-04-10T08:53:21;6.90;;;4.67;;
15297;SDS011;7750;48.796;9.026;2023-04-10T08:58:23;6.27;;;4.80;;
15297;SDS011;7750;48.796;9.026;2023-04-10T09:03:27;6.40;;;4.87;;
15297;SDS011;7750;48.796;9.026;2023-04-10T09:08:31;5.30;;;4.27;;
15297;SDS011;7750;48.796;9.026;2023-04-10T09:13:37;5.23;;;3.97;;
15297;SDS011;7750;48.796;9.026;2023-04-10T09:18:39;5.80;;;3.93;;
15297;SDS011;7750;48.796;9.026;2023-04-10T09:23:45;4.90;;;3.80;;
15297;SDS011;7750;48.796;9.026;2023-04-10T09:39:08;5.10;;;3.70;;
15297;SDS011;7750;48.796;9.026;2023-04-10T09:44:10;4.30;;;3.37;;
15297;SDS011;7750;48.796;9.026;2023-04-10T09:49:10;4.47;;;3.67;;
15297;SDS011;7750;48.796;9.026;2023-04-10T09:54:11;5.67;;;3.37;;
15297;SDS011;7750;48.796;9.026;2023-04-10T09:59:12;3.70;;;3.00;;
15297;SDS011;7750;48.796;9.026;2023-04-10T10:04:13;5.07;;;3.70;;
15297;SDS011;7750;48.796;9.026;2023-04-10T10:09:16;4.33;;;3.27;;
15297;SDS011;7750;48.796;9.026;2023-04-10T10:14:17;4.87;;;2.70;;
15297;SDS011;7750;48.796;9.026;2023-04-10T10:24:40;4.30;;;3.50;;
15297;SDS011;7750;48.796;9.026;2023-04-10T10:29:46;3.87;;;3.03;;
15297;SDS011;7750;48.796;9.026;2023-04-10T10:34:50;3.73;;;3.00;;
15297;SDS011;7750;48.796;9.026;2023-04-10T10:39:59;4.70;;;3.70;;
15297;SDS011;7750;48.796;9.026;2023-04-10T10:45:07;5.40;;;3.87;;
15297;SDS011;7750;48.796;9.026;2023-04-10T10:50:14;3.40;;;2.80;;
15297;SDS011;7750;48.796;9.026;2023-04-10T11:00:22;3.37;;;2.73;;
15297;SDS011;7750;48.796;9.026;2023-04-10T11:11:00;3.00;;;2.30;;
15297;SDS011;7750;48.796;9.026;2023-04-10T11:16:02;5.47;;;2.83;;
15297;SDS011;7750;48.796;9.026;2023-04-10T11:21:08;3.30;;;2.60;;
15297;SDS011;7750;48.796;9.026;2023-04-10T11:26:11;3.03;;;2.10;;
15297;SDS011;7750;48.796;9.026;2023-04-10T11:36:23;2.77;;;2.00;;
15297;SDS011;7750;48.796;9.026;2023-04-10T11:46:34;2.20;;;1.70;;
15297;SDS011;7750;48.796;9.026;2023-04-10T11:51:36;2.63;;;1.67;;
15297;SDS011;7750;48.796;9.026;2023-04-10T11:56:39;2.30;;;1.70;;
15297;SDS011;7750;48.796;9.026;2023-04-10T12:07:42;3.20;;;2.20;;
15297;SDS011;7750;48.796;9.026;2023-04-10T12:18:12;2.97;;;2.07;;
15297;SDS011;7750;48.796;9.026;2023-04-10T12:23:13;2.23;;;1.70;;
15297;SDS011;7750;48.796;9.026;2023-04-10T12:28:21;2.70;;;2.00;;
15297;SDS011;7750;48.796;9.026;2023-04-10T12:33:22;2.60;;;1.83;;
15297;SDS011;7750;48.796;9.026;2023-04-10T12:38:39;2.00;;;1.70;;
15297;SDS011;7750;48.796;9.026;2023-04-10T12:43:42;2.73;;;1.90;;
15297;SDS011;7750;48.796;9.026;2023-04-10T12:48:43;2.03;;;1.53;;
15297;SDS011;7750;48.796;9.026;2023-04-10T12:53:44;3.23;;;2.20;;
15297;SDS011;7750;48.796;9.026;2023-04-10T12:58:45;1.87;;;1.40;;
15297;SDS011;7750;48.796;9.026;2023-04-10T13:03:46;2.10;;;1.60;;
15297;SDS011;7750;48.796;9.026;2023-04-10T13:08:47;2.53;;;1.90;;
15297;SDS011;7750;48.796;9.026;2023-04-10T13:13:54;2.17;;;1.70;;
15297;SDS011;7750;48.796;9.026;2023-04-10T13:18:59;2.07;;;1.60;;
15297;SDS011;7750;48.796;9.026;2023-04-10T13:24:00;2.03;;;1.67;;
15297;SDS011;7750;48.796;9.026;2023-04-10T13:29:03;2.47;;;1.70;;
15297;SDS011;7750;48.796;9.026;2023-04-10T13:34:03;2.10;;;1.43;;
15297;SDS011;7750;48.796;9.026;2023-04-10T13:39:04;2.20;;;1.43;;
15297;SDS011;7750;48.796;9.026;2023-04-10T13:44:05;2.30;;;1.70;;
15297;SDS011;7750;48.796;9.026;2023-04-10T13:49:06;2.43;;;1.60;;
15297;SDS011;7750;48.796;9.026;2023-04-10T14:05:02;2.20;;;1.50;;
15297;SDS011;7750;48.796;9.026;2023-04-10T14:20:24;2.30;;;1.70;;
15297;SDS011;7750;48.796;9.026;2023-04-10T14:30:34;3.10;;;2.00;;
15297;SDS011;7750;48.796;9.026;2023-04-10T14:47:01;2.10;;;1.50;;
15297;SDS011;7750;48.796;9.026;2023-04-10T14:52:05;2.00;;;1.60;;
15297;SDS011;7750;48.796;9.026;2023-04-10T14:57:06;2.07;;;1.40;;
15297;SDS011;7750;48.796;9.026;2023-04-10T15:02:07;2.10;;;1.30;;
15297;SDS011;7750;48.796;9.026;2023-04-10T15:07:07;1.90;;;1.40;;
15297;SDS011;7750;48.796;9.026;2023-04-10T15:12:08;2.30;;;1.60;;
15297;SDS011;7750;48.796;9.026;2023-04-10T15:17:09;1.87;;;1.43;;
15297;SDS011;7750;48.796;9.026;2023-04-10T15:22:09;2.40;;;1.70;;
15297;SDS011;7750;48.796;9.026;2023-04-10T15:27:10;1.93;;;1.53;;
15297;SDS011;7750;48.796;9.026;2023-04-10T15:32:11;3.20;;;1.90;;
15297;SDS011;7750;48.796;9.026;2023-04-10T15:37:11;2.50;;;1.90;;
15297;SDS011;7750;48.796;9.026;2023-04-10T15:42:12;2.70;;;1.97;;
15297;SDS011;7750;48.796;9.026;2023-04-10T15:47:14;2.60;;;2.00;;
15297;SDS011;7750;48.796;9.026;2023-04-10T15:52:15;2.50;;;1.80;;
15297;SDS011;7750;48.796;9.026;2023-04-10T15:57:16;2.63;;;1.80;;
15297;SDS011;7750;48.796;9.026;2023-04-10T16:02:16;3.13;;;2.47;;
15297;SDS011;7750;48.796;9.026;2023-04-10T16:07:17;2.80;;;2.00;;
15297;SDS011;7750;48.796;9.026;2023-04-10T16:12:18;3.70;;;2.10;;
15297;SDS011;7750;48.796;9.026;2023-04-10T16:17:19;2.60;;;1.83;;
15297;SDS011;7750;48.796;9.026;2023-04-10T16:22:19;2.17;;;1.70;;
15297;SDS011;7750;48.796;9.026;2023-04-10T16:27:20;2.03;;;1.43;;
15297;SDS011;7750;48.796;9.026;2023-04-10T16:32:20;2.80;;;2.00;;
15297;SDS011;7750;48.796;9.026;2023-04-10T16:37:22;2.20;;;1.57;;
15297;SDS011;7750;48.796;9.026;2023-04-10T16:42:22;2.53;;;1.93;;
15297;SDS011;7750;48.796;9.026;2023-04-10T16:47:23;3.33;;;2.30;;
15297;SDS011;7750;48.796;9.026;2023-04-10T16:52:24;2.00;;;1.60;;
15297;SDS011;7750;48.796;9.026;2023-04-10T16:57:24;2.77;;;1.67;;
15297;SDS011;7750;48.796;9.026;2023-04-10T17:02:25;3.83;;;2.20;;
15297;SDS011;7750;48.796;9.026;2023-04-10T17:07:27;3.17;;;2.07;;
15297;SDS011;7750;48.796;9.026;2023-04-10T17:12:27;2.63;;;1.60;;
15297;SDS011;7750;48.796;9.026;2023-04-10T17:17:28;3.53;;;2.40;;
15297;SDS011;7750;48.796;9.026;2023-04-10T17:22:32;2.63;;;1.97;;
15297;SDS011;7750;48.796;9.026;2023-04-10T17:27:34;3.30;;;1.57;;
15297;SDS011;7750;48.796;9.026;2023-04-10T17:32:35;2.57;;;1.80;;
15297;SDS011;7750;48.796;9.026;2023-04-10T17:37:35;3.17;;;2.10;;
15297;SDS011;7750;48.796;9.026;2023-04-10T17:42:36;2.93;;;2.40;;
15297;SDS011;7750;48.796;9.026;2023-04-10T17:47:37;2.20;;;1.70;;
15297;SDS011;7750;48.796;9.026;2023-04-10T17:52:38;2.60;;;1.90;;
15297;SDS011;7750;48.796;9.026;2023-04-10T17:57:39;2.70;;;2.07;;
15297;SDS011;7750;48.796;9.026;2023-04-10T18:02:40;2.83;;;2.10;;
15297;SDS011;7750;48.796;9.026;2023-04-10T18:07:41;2.80;;;2.23;;
15297;SDS011;7750;48.796;9.026;2023-04-10T18:12:42;2.60;;;2.03;;
15297;SDS011;7750;48.796;9.026;2023-04-10T18:17:43;3.50;;;2.30;;
15297;SDS011;7750;48.796;9.026;2023-04-10T18:22:43;3.67;;;2.50;;
15297;SDS011;7750;48.796;9.026;2023-04-10T18:27:47;3.93;;;2.87;;
15297;SDS011;7750;48.796;9.026;2023-04-10T18:32:47;4.43;;;3.07;;
15297;SDS011;7750;48.796;9.026;2023-04-10T18:37:50;2.73;;;1.93;;
15297;SDS011;7750;48.796;9.026;2023-04-10T18:42:51;3.23;;;2.27;;
15297;SDS011;7750;48.796;9.026;2023-04-10T18:47:52;6.03;;;2.90;;
15297;SDS011;7750;48.796;9.026;2023-04-10T18:52:52;4.40;;;2.80;;
15297;SDS011;7750;48.796;9.026;2023-04-10T18:57:53;3.72;;;2.20;;
15297;SDS011;7750;48.796;9.026;2023-04-10T19:02:54;3.73;;;2.80;;
15297;SDS011;7750;48.796;9.026;2023-04-10T19:07:54;4.13;;;3.07;;
15297;SDS011;7750;48.796;9.026;2023-04-10T19:12:55;3.60;;;2.80;;
15297;SDS011;7750;48.796;9.026;2023-04-10T19:17:56;4.27;;;2.70;;
15297;SDS011;7750;48.796;9.026;2023-04-10T19:22:57;6.10;;;3.17;;
15297;SDS011;7750;48.796;9.026;2023-04-10T19:27:57;4.60;;;2.47;;
15297;SDS011;7750;48.796;9.026;2023-04-10T19:32:58;3.90;;;2.53;;
15297;SDS011;7750;48.796;9.026;2023-04-10T19:37:59;4.50;;;2.60;;
15297;SDS011;7750;48.796;9.026;2023-04-10T19:42:59;3.20;;;2.47;;
15297;SDS011;7750;48.796;9.026;2023-04-10T19:48:00;3.47;;;2.77;;
15297;SDS011;7750;48.796;9.026;2023-04-10T19:53:01;4.63;;;3.00;;
15297;SDS011;7750;48.796;9.026;2023-04-10T19:58:01;5.37;;;2.80;;
15297;SDS011;7750;48.796;9.026;2023-04-10T20:03:02;3.87;;;2.67;;
15297;SDS011;7750;48.796;9.026;2023-04-10T20:08:03;3.70;;;2.80;;
15297;SDS011;7750;48.796;9.026;2023-04-10T20:13:04;3.07;;;2.50;;
15297;SDS011;7750;48.796;9.026;2023-04-10T20:18:04;8.43;;;2.90;;
15297;SDS011;7750;48.796;9.026;2023-04-10T20:23:05;4.60;;;2.90;;
15297;SDS011;7750;48.796;9.026;2023-04-10T20:28:12;3.37;;;2.93;;
15297;SDS011;7750;48.796;9.026;2023-04-10T20:33:12;5.10;;;2.80;;
15297;SDS011;7750;48.796;9.026;2023-04-10T20:38:13;4.23;;;2.77;;
15297;SDS011;7750;48.796;9.026;2023-04-10T20:43:14;3.20;;;2.50;;
15297;SDS011;7750;48.796;9.026;2023-04-10T20:48:24;3.00;;;2.60;;
15297;SDS011;7750;48.796;9.026;2023-04-10T21:08:59;3.30;;;2.43;;
15297;SDS011;7750;48.796;9.026;2023-04-10T21:20:05;3.60;;;2.70;;
15297;SDS011;7750;48.796;9.026;2023-04-10T22:02:59;6.30;;;2.63;;
15297;SDS011;7750;48.796;9.026;2023-04-10T22:24:30;3.60;;;2.60;;
15297;SDS011;7750;48.796;9.026;2023-04-10T22:29:32;2.80;;;2.00;;
15297;SDS011;7750;48.796;9.026;2023-04-10T22:34:36;11.17;;;2.43;;
15297;SDS011;7750;48.796;9.026;2023-04-10T22:45:50;5.30;;;2.27;;
15297;SDS011;7750;48.796;9.026;2023-04-10T23:44:49;3.33;;;2.00;;
15297;SDS011;7750;48.796;9.026;2023-04-10T23:49:58;5.20;;;2.00;;
15297;SDS011;7750;48.796;9.026;2023-04-10T23:55:09;3.10;;;2.07;;
